logo
App data

Teenage Mutant Ninja Turtles: Mutants in Manhattan

Store | Hub | SteamDB | Site
Developer: PlatinumGames Publisher: Activision
Genre: Action, Adventure
Languages: English, French, Italian, German, Spanish
Tags: Action (47), Adventure (38), Co-op (27), Ninja (26), Hack and Slash (19), Spectacle fighter (18), Character Action Game (14), Beat 'em up (13), Multiplayer (12), Comic Book (8), Open World (8)
Category: Single-player, Multi-player, Co-op, Steam Achievements, Full controller support, Steam Leaderboards
Release date: May 24, 2016
Price: $39.99
Score rank: 24% Userscore: 64% Old userscore: 63%
Owners: 0 .. 20,000
Followers: 6,635
Peak concurrent players yesterday: 3
Playtime total: 13:24 (average) 13:24 (median)

Steam Spy is still in beta, so expect major bugs.

Owners data:

Access restricted.

This feature is only available to users with special access rights. Sorry.

If you want to proceed, you need to register or log in first and then back Steam Spy on Patreon. Look for Indie or Pro pledge.

Don't forget to use the same email as on Steam Spy!

Audience in 2 weeks:

Access restricted.

This feature is only available to users with special access rights. Sorry.

If you want to proceed, you need to register or log in first and then back Steam Spy on Patreon. Look for Indie or Pro pledge.

Don't forget to use the same email as on Steam Spy!

Peak daily concurrent players:

CCU data courtesy of SteamDB. Used with permission.

Hourly concurrent players:

Daily Twitch stats:

Hourly Twitch stats:

YouTube:

The views data is based on top 50 videos uploaded last week. Actual number of views might be more than the number shown.

The displayed number of videos uploaded yesterday is limited to 50, so if there were more videos uploaded, the number will still show 50.

If the game has commonly used word as its name (like "FEAR" or "Volume") its number of Youtube views might be wrong.

Games similar to this one:

# Game Release date
Price
Score rank
(Userscore / Metascore)
Owners
Players
Playtime (Median)
1 Umihara Kawase Nov 2, 2015 $9.9999% (98%)0 .. 20,0000%00:00 (00:00)
2 Strania - The Stella Machina - Nov 24, 2015 $14.99N/A (N/A)0 .. 20,0000%00:00 (00:00)
3 Bot Vice Jul 11, 2016 $1.9995% (96%)20,000 .. 50,0003.7%02:32 (00:50)
4 Supercharged Robot VULKAISER Jun 4, 2015 $4.9990% (94%)20,000 .. 50,0000%00:00 (00:00)
5 Below Kryll Sep 7, 2015 $4.9983% (92%)0 .. 20,0005.26%01:37 (00:32)
6 Chicken Invaders 3 Jun 8, 2015 $4.9979% (91%)0 .. 20,0000%00:00 (00:00)
7 Sam & Max 104: Abe Lincoln Must Die! Jun 15, 2007 N/AN/A (N/A)50,000 .. 100,0001.45%205:08 (68:22)
8 Giga Girl Mar 23, 2016 $2.99N/A (N/A)0 .. 20,0000%00:00 (00:00)
9 A Lenda do Herói - O Herói desta Canção Apr 24, 2017 $15.9976% (90%)20,000 .. 50,0000%00:00 (00:00)
10 Joint Operations: Combined Arms Gold Sep 29, 2009 $19.9970% (88%)0 .. 20,0000%00:00 (00:00)
11 Intrude Aug 1, 2016 $3.9967% (87%)0 .. 20,0000%00:00 (00:00)
12 Earth Overclocked Dec 4, 2015 $9.9967% (87%)0 .. 20,0003.13%01:10 (00:46)
13 SPINGUN Nov 11, 2016 $1.9967% (87%)0 .. 20,0000%00:00 (00:00)
14 Ittle Dew 2 Nov 15, 2016 $19.9964% (86%)0 .. 20,00016.67%03:38 (01:12)
15 Rocket Fist May 12, 2016 $4.9964% (86%)0 .. 20,0008.33%01:20 (00:26)
16 N2O: Nitrous Oxide Jun 29, 2015 $4.99N/A (N/A)0 .. 20,0000%00:00 (00:00)
17 ARCADE GAME SERIES: GALAGA Apr 19, 2016 $3.9964% (86%)50,000 .. 100,0001.8%00:23 (00:14)
18 Disney's Chicken Little Feb 24, 2015 $9.9962% (85%)0 .. 20,0008.33%02:30 (00:50)
19 NeonXSZ Feb 22, 2016 $14.9959% (84%)0 .. 20,0000%00:00 (00:00)
20 MDK 2 Sep 17, 2009 $9.9959% (84%/83%)20,000 .. 50,0000%00:00 (00:00)
21 Gurgamoth Feb 16, 2016 $4.9959% (84%)50,000 .. 100,0001%01:07 (00:22)
22 Dyna Bomb May 13, 2016 $4.99N/A (N/A)0 .. 20,0000%00:00 (00:00)
23 Nandeyanen!? - The 1st Sûtra Jul 22, 2015 $1.99N/A (N/A)0 .. 20,0000%00:00 (00:00)
24 Rad Rodgers: World One Dec 1, 2016 $19.9954% (82%/72%)0 .. 20,0000%00:00 (00:00)
25 Weapon of Choice Sep 23, 2015 $4.99N/A (N/A)0 .. 20,0000%00:00 (00:00)
26 Cinemaware Anthology: 1986-1991 Nov 14, 2014 $9.99N/A (N/A)0 .. 20,0000%00:00 (00:00)
27 Game Type Sep 23, 2015 $2.99N/A (N/A)0 .. 20,0000%00:00 (00:00)
28 Zenohell Oct 15, 2015 $9.9949% (80%)20,000 .. 50,0000%00:00 (00:00)
29 Urban Chaos Oct 15, 2013 $6.9949% (80%)20,000 .. 50,0000%00:00 (00:00)
30 Deadly 30 Jan 8, 2014 $3.4945% (78%)100,000 .. 200,0001.06%20:43 (13:48)
31 Xenocide Aug 28, 2015 $2.99N/A (N/A)0 .. 20,0000%00:00 (00:00)
32 A Blind Legend Apr 7, 2016 $6.9944% (77%)0 .. 20,0000%00:00 (00:00)
33 Arkshot May 19, 2016 $4.9944% (77%)0 .. 20,0000%00:00 (00:00)
34 Olympia Rising Jul 23, 2015 $4.99N/A (N/A)0 .. 20,0000%00:00 (00:00)
35 Gemini: Heroes Reborn Jan 18, 2016 $4.9944% (77%/54%)50,000 .. 100,0000%00:00 (00:00)
36 Starchaser: Priestess of the Night Sky Jul 24, 2015 $9.99N/A (N/A)0 .. 20,0000%00:00 (00:00)
37 Extravaganza Rising Jul 21, 2016 N/AN/A (N/A)20,000 .. 50,0001.47%00:46 (00:15)
38 Viking Saga: The Cursed Ring Oct 29, 2015 $2.99N/A (N/A)0 .. 20,00014.29%00:38 (00:12)
39 FIVE: Champions of Canaan Sep 27, 2016 $3.9940% (75%)0 .. 20,0000%00:00 (00:00)
40 Ladra Nov 13, 2015 $1.99N/A (N/A)20,000 .. 50,0000%00:00 (00:00)
41 A Quiver of Crows Oct 19, 2016 $14.99N/A (N/A)0 .. 20,0000%00:00 (00:00)
42 Zombie Vikings Dec 7, 2015 $11.9936% (73%/74%)20,000 .. 50,0000%00:00 (00:00)
43 Wyv and Keep: The Temple of the Lost Idol Aug 8, 2014 $14.99N/A (N/A)20,000 .. 50,0000%00:00 (00:00)
44 Tahira: Echoes of the Astral Empire Aug 31, 2016 $14.9934% (72%/66%)0 .. 20,0000%00:00 (00:00)
45 Smithy Jun 3, 2016 $3.99N/A (N/A)50,000 .. 100,0000%00:00 (00:00)
46 The Eigengrau Menagerie Jun 4, 2015 $2.99N/A (N/A)0 .. 20,0000%00:00 (00:00)
47 Death Tractor Oct 29, 2015 $0.99N/A (N/A)0 .. 20,0004.17%00:47 (00:15)
48 Traverser Jul 9, 2015 $14.9933% (71%/61%)0 .. 20,0000%00:00 (00:00)
49 Tank Brawl Apr 20, 2016 $4.99N/A (N/A)0 .. 20,0000%00:00 (00:00)
50 Deadlight: Director's Cut Jun 21, 2016 $11.9931% (70%)100,000 .. 200,0000.72%00:06 (00:02)
51 Fair Strike Feb 5, 2004 $3.99N/A (N/A/56%)0 .. 20,0000%00:00 (00:00)
52 Pixel-Warfare: Pro Sep 20, 2016 $0.9928% (68%)20,000 .. 50,0000%00:00 (00:00)
53 ARMA: Combat Operations Mar 12, 2008 $7.9927% (67%/74%)20,000 .. 50,0000%00:00 (00:00)
54 Battle Of Europe Sep 18, 2014 $9.99N/A (N/A/54%)0 .. 20,0000%00:00 (00:00)
55 Operation: Matriarchy Nov 20, 2005 $5.99N/A (N/A)0 .. 20,0000%00:00 (00:00)
56 Cubway Aug 11, 2016 $3.9924% (65%)100,000 .. 200,0000%00:00 (00:00)
57 Zoo Rampage Jul 9, 2014 $3.9923% (64%)50,000 .. 100,0005%17:19 (05:46)
58 Revenge of Roger Rouge Apr 22, 2016 $0.99N/A (N/A)20,000 .. 50,0000%00:00 (00:00)
59 Urban Pirate Jun 17, 2016 $6.99N/A (N/A)0 .. 20,0000%00:00 (00:00)
60 Mytheon Jul 13, 2010 $9.9923% (64%)0 .. 20,0000%00:00 (00:00)
61 Nightmare on Azathoth Oct 30, 2015 $0.99N/A (N/A)0 .. 20,0000%00:00 (00:00)
62 Momento Temporis: Light from the Deep Oct 27, 2016 $4.99N/A (N/A)0 .. 20,0000%00:00 (00:00)
63 E.T. Armies Mar 3, 2016 $14.9920% (61%/54%)0 .. 20,0000%00:00 (00:00)
64 Overruled! Sep 15, 2015 $12.99N/A (N/A)20,000 .. 50,0000%00:00 (00:00)
65 Lolly Joe Aug 5, 2016 $2.99N/A (N/A)0 .. 20,0000%00:00 (00:00)
66 VR Journey Dec 15, 2016 $2.9917% (59%)20,000 .. 50,0000%00:00 (00:00)
67 Sir! I'd Like To Report A Bug! Oct 19, 2015 $1.99N/A (N/A)0 .. 20,0000%00:00 (00:00)
68 Elements: Epic Heroes Dec 21, 2015 $6.99N/A (N/A)0 .. 20,0000%00:00 (00:00)
69 Exodus from the Earth Oct 24, 2008 $14.9915% (57%)0 .. 20,0000%00:00 (00:00)
70 Assassins vs Pirates May 10, 2016 $7.9915% (57%)0 .. 20,0000%00:00 (00:00)
71 Rocko's Quest Jul 30, 2003 $4.99N/A (N/A/41%)0 .. 20,0000%00:00 (00:00)
72 GAROU: MARK OF THE WOLVES Dec 6, 2016 $9.9915% (56%)0 .. 20,0000%00:00 (00:00)
73 Stay Close Oct 14, 2016 $8.9914% (55%)0 .. 20,00025%00:10 (00:05)
74 Princess Kaguya: Legend of the Moon Warrior Aug 4, 2015 $10.99N/A (N/A)0 .. 20,0000%00:00 (00:00)
75 Beatbuddy: On Tour Dec 4, 2015 $6.99N/A (N/A)0 .. 20,0000%00:00 (00:00)
76 Coniclysm Mar 26, 2010 $4.99N/A (N/A)0 .. 20,0000%00:00 (00:00)
77 SHOCK TROOPERS 2nd Squad Sep 28, 2016 $7.99N/A (N/A)0 .. 20,0000%00:00 (00:00)
78 Mortos Nov 14, 2016 $1.9910% (50%)0 .. 20,0000%00:00 (00:00)
79 Fastigium Dec 17, 2016 FreeN/A (N/A)0 .. 20,0000%00:00 (00:00)
80 Marvel: Ultimate Alliance 2 Jul 26, 2016 $39.9910% (50%)0 .. 20,0000%00:00 (00:00)
81 Blasting Agent: Ultimate Edition Aug 17, 2016 $2.99N/A (N/A)0 .. 20,0000%00:00 (00:00)
82 Megamagic: Wizards of the Neon Age Apr 20, 2016 $2.998% (46%/67%)20,000 .. 50,0002.63%04:09 (01:23)
83 B.A.D Battle Armor Division Aug 18, 2015 $5.99N/A (N/A)0 .. 20,0000%00:00 (00:00)
84 ! That Bastard Is Trying To Steal Our Gold ! Mar 1, 2016 $3.998% (46%)50,000 .. 100,0000.32%00:15 (00:05)
85 Super Dungeon Bros Nov 1, 2016 $19.998% (46%)0 .. 20,0000%00:00 (00:00)
86 Zombie Apocalypse: Escape The Undead City Nov 25, 2013 $0.99N/A (N/A)0 .. 20,0004.76%24:44 (08:14)
87 Twin Sector Sep 16, 2009 $4.995% (38%/49%)50,000 .. 100,0000%00:00 (00:00)
88 Red Goddess: Inner World Sep 1, 2015 $9.99N/A (N/A/53%)0 .. 20,0000%00:00 (00:00)
89 Drug Wars Mar 17, 2009 $4.99N/A (N/A/35%)0 .. 20,0000%00:00 (00:00)
90 Ku: Shroud of the Morrigan Mar 17, 2014 $4.99N/A (N/A)20,000 .. 50,0000%00:00 (00:00)
91 Alone in the Dark: Illumination Jun 11, 2015 $19.992% (24%)0 .. 20,0000%00:00 (00:00)
92 Elite vs. Freedom May 31, 2016 $4.992% (22%)0 .. 20,0000%00:00 (00:00)
93 Project Pulsation Dec 15, 2015 $4.99N/A (N/A)200,000 .. 500,0000.19%00:31 (00:10)
94 Barbarian Brawl Feb 12, 2015 $4.99N/A (N/A)0 .. 20,0000%00:00 (00:00)
95 Doomed Kingdoms Dec 12, 2016 $3.99N/A (N/A)100,000 .. 200,0000.32%02:08 (01:25)
96 The Escapist Sep 15, 2014 $4.99N/A (N/A)0 .. 20,0000%00:00 (00:00)
97 Systematic Immunity May 20, 2016 $6.99N/A (N/A)0 .. 20,0000%00:00 (00:00)
98 Animal Gods Oct 12, 2015 $9.99N/A (N/A/50%)0 .. 20,0000%00:00 (00:00)
99 Hush Hush - Unlimited Survival Horror Mar 25, 2016 $1.99N/A (N/A)0 .. 20,0000%00:00 (00:00)
100 Kabitis Jun 2, 2016 $1.03N/A (N/A)100,000 .. 200,0000.44%01:42 (01:25)
101 Unearthing Colossal Oct 21, 2016 $14.99N/A (N/A)0 .. 20,0000%00:00 (00:00)
102 Miaou Moon Aug 16, 2016 $9.99N/A (N/A)0 .. 20,0000%00:00 (00:00)
103 Porradaria Upgrade Oct 2, 2013 $4.99N/A (N/A)20,000 .. 50,0000.47%01:01 (00:20)
104 SWR JST DX Selective Memory Erase Effect Apr 20, 2015 $4.99N/A (N/A)0 .. 20,0000%00:00 (00:00)
105 Izeriya Apr 28, 2016 $0.99N/A (N/A)0 .. 20,0000%00:00 (00:00)

Owners of this game also own:

Access restricted.

This feature is only available to users with special access rights. Sorry.

If you want to proceed, you need to register or log in first and then back Steam Spy on Patreon. Look for Indie or Pro pledge.

Don't forget to use the same email as on Steam Spy!

Playtime distribution:

Access restricted.

This feature is only available to users with special access rights. Sorry.

If you want to proceed, you need to register or log in first and then back Steam Spy on Patreon. Look for Indie or Pro pledge.

Don't forget to use the same email as on Steam Spy!

Playtime (2 weeks):

Access restricted.

This feature is only available to users with special access rights. Sorry.

If you want to proceed, you need to register or log in first and then back Steam Spy on Patreon. Look for Indie or Pro pledge.

Don't forget to use the same email as on Steam Spy!

User reviews:

Login required.

Please register or log in to see this information.